sensor_id;sensor_type;location;lat;lon;timestamp;pressure;altitude;pressure_sealevel;temperature;humidity
49030;BME280;43337;52.070;4.508;2023-03-25T00:02:20;100196.81;;;9.45;100.00
49030;BME280;43337;52.070;4.508;2023-03-25T00:04:49;100196.81;;;9.45;100.00
49030;BME280;43337;52.070;4.508;2023-03-25T00:07:15;100206.50;;;9.45;100.00
49030;BME280;43337;52.070;4.508;2023-03-25T00:09:42;100204.72;;;9.45;100.00
49030;BME280;43337;52.070;4.508;2023-03-25T00:12:08;100196.91;;;9.44;100.00
49030;BME280;43337;52.070;4.508;2023-03-25T00:14:33;100198.59;;;9.45;100.00
49030;BME280;43337;52.070;4.508;2023-03-25T00:16:59;100179.47;;;9.43;100.00
49030;BME280;43337;52.070;4.508;2023-03-25T00:19:26;100209.91;;;9.47;100.00
49030;BME280;43337;52.070;4.508;2023-03-25T00:21:51;100198.56;;;9.46;100.00
49030;BME280;43337;52.070;4.508;2023-03-25T00:24:18;100195.06;;;9.46;100.00
49030;BME280;43337;52.070;4.508;2023-03-25T00:26:44;100191.56;;;9.45;100.00
49030;BME280;43337;52.070;4.508;2023-03-25T00:29:10;100197.38;;;9.35;100.00
49030;BME280;43337;52.070;4.508;2023-03-25T00:31:35;100202.41;;;9.39;100.00
49030;BME280;43337;52.070;4.508;2023-03-25T00:34:01;100205.88;;;9.40;100.00
49030;BME280;43337;52.070;4.508;2023-03-25T00:36:26;100202.31;;;9.41;100.00
49030;BME280;43337;52.070;4.508;2023-03-25T00:38:52;100195.72;;;9.32;100.00
49030;BME280;43337;52.070;4.508;2023-03-25T00:41:24;100193.81;;;9.36;100.00
49030;BME280;43337;52.070;4.508;2023-03-25T00:43:51;100204.09;;;9.40;100.00
49030;BME280;43337;52.070;4.508;2023-03-25T00:46:16;100194.56;;;9.38;100.00
49030;BME280;43337;52.070;4.508;2023-03-25T00:48:42;100178.19;;;9.33;100.00
49030;BME280;43337;52.070;4.508;2023-03-25T00:51:08;100190.25;;;9.37;100.00
49030;BME280;43337;52.070;4.508;2023-03-25T00:53:36;100188.47;;;9.37;100.00
49030;BME280;43337;52.070;4.508;2023-03-25T00:56:03;100191.94;;;9.38;100.00
49030;BME280;43337;52.070;4.508;2023-03-25T00:58:29;100177.34;;;9.32;100.00
49030;BME280;43337;52.070;4.508;2023-03-25T01:00:55;100170.16;;;9.36;100.00
49030;BME280;43337;52.070;4.508;2023-03-25T01:03:23;100176.50;;;9.32;100.00
49030;BME280;43337;52.070;4.508;2023-03-25T01:05:49;100183.38;;;9.34;100.00
49030;BME280;43337;52.070;4.508;2023-03-25T01:08:15;100174.00;;;9.28;100.00
49030;BME280;43337;52.070;4.508;2023-03-25T01:10:42;100187.13;;;9.28;100.00
49030;BME280;43337;52.070;4.508;2023-03-25T01:13:09;100190.84;;;9.24;100.00
49030;BME280;43337;52.070;4.508;2023-03-25T01:15:34;100196.22;;;9.21;100.00
49030;BME280;43337;52.070;4.508;2023-03-25T01:18:00;100202.41;;;9.20;100.00
49030;BME280;43337;52.070;4.508;2023-03-25T01:20:26;100195.97;;;9.09;100.00
49030;BME280;43337;52.070;4.508;2023-03-25T01:22:52;100190.94;;;9.04;100.00
49030;BME280;43337;52.070;4.508;2023-03-25T01:25:17;100196.22;;;9.02;100.00
49030;BME280;43337;52.070;4.508;2023-03-25T01:27:43;100188.94;;;8.90;100.00
49030;BME280;43337;52.070;4.508;2023-03-25T01:30:09;100183.75;;;8.89;100.00
49030;BME280;43337;52.070;4.508;2023-03-25T01:32:35;100196.03;;;8.88;100.00
49030;BME280;43337;52.070;4.508;2023-03-25T01:35:00;100195.16;;;8.88;100.00
49030;BME280;43337;52.070;4.508;2023-03-25T01:37:26;100179.50;;;8.86;100.00
49030;BME280;43337;52.070;4.508;2023-03-25T01:39:51;100164.56;;;8.68;100.00
49030;BME280;43337;52.070;4.508;2023-03-25T01:42:17;100184.97;;;8.82;100.00
49030;BME280;43337;52.070;4.508;2023-03-25T01:47:08;100148.00;;;8.67;100.00
49030;BME280;43337;52.070;4.508;2023-03-25T01:49:37;100185.53;;;8.88;100.00
49030;BME280;43337;52.070;4.508;2023-03-25T01:52:17;100170.19;;;8.79;100.00
49030;BME280;43337;52.070;4.508;2023-03-25T01:54:46;100176.94;;;8.85;100.00
49030;BME280;43337;52.070;4.508;2023-03-25T01:57:17;100166.50;;;8.83;100.00
49030;BME280;43337;52.070;4.508;2023-03-25T01:59:45;100166.50;;;8.83;100.00
49030;BME280;43337;52.070;4.508;2023-03-25T02:02:11;100171.41;;;8.91;100.00
49030;BME280;43337;52.070;4.508;2023-03-25T02:04:49;100165.59;;;8.84;100.00
49030;BME280;43337;52.070;4.508;2023-03-25T02:07:25;100175.81;;;8.90;100.00
49030;BME280;43337;52.070;4.508;2023-03-25T02:09:54;100166.38;;;8.86;100.00
49030;BME280;43337;52.070;4.508;2023-03-25T02:12:20;100162.69;;;8.90;100.00
49030;BME280;43337;52.070;4.508;2023-03-25T02:14:45;100155.09;;;8.84;100.00
49030;BME280;43337;52.070;4.508;2023-03-25T02:28:14;100157.00;;;8.99;100.00
49030;BME280;43337;52.070;4.508;2023-03-25T02:39:33;100132.50;;;8.99;100.00
49030;BME280;43337;52.070;4.508;2023-03-25T02:42:13;100149.75;;;9.04;100.00
49030;BME280;43337;52.070;4.508;2023-03-25T02:45:08;100162.81;;;9.06;100.00
49030;BME280;43337;52.070;4.508;2023-03-25T02:47:43;100159.66;;;8.99;100.00
49030;BME280;43337;52.070;4.508;2023-03-25T02:50:23;100139.13;;;9.08;100.00
49030;BME280;43337;52.070;4.508;2023-03-25T02:52:53;100139.25;;;9.04;100.00
49030;BME280;43337;52.070;4.508;2023-03-25T02:55:23;100153.00;;;9.10;100.00
49030;BME280;43337;52.070;4.508;2023-03-25T02:57:55;100124.44;;;9.03;100.00
49030;BME280;43337;52.070;4.508;2023-03-25T03:00:25;100123.38;;;9.08;100.00
49030;BME280;43337;52.070;4.508;2023-03-25T03:02:58;100125.78;;;9.12;100.00
49030;BME280;43337;52.070;4.508;2023-03-25T03:05:31;100124.91;;;9.12;100.00
49030;BME280;43337;52.070;4.508;2023-03-25T03:08:10;100134.34;;;9.16;100.00
49030;BME280;43337;52.070;4.508;2023-03-25T03:16:27;100104.53;;;9.17;100.00
49030;BME280;43337;52.070;4.508;2023-03-25T03:19:04;100121.94;;;9.19;100.00
49030;BME280;43337;52.070;4.508;2023-03-25T03:21:36;100125.44;;;9.18;100.00
49030;BME280;43337;52.070;4.508;2023-03-25T03:24:21;100125.63;;;9.15;100.00
49030;BME280;43337;52.070;4.508;2023-03-25T03:27:11;100130.31;;;9.09;100.00
49030;BME280;43337;52.070;4.508;2023-03-25T03:29:47;100129.75;;;9.02;100.00
49030;BME280;43337;52.070;4.508;2023-03-25T03:32:15;100130.94;;;8.95;100.00
49030;BME280;43337;52.070;4.508;2023-03-25T03:34:54;100135.00;;;8.83;100.00
49030;BME280;43337;52.070;4.508;2023-03-25T03:37:29;100133.41;;;8.80;100.00
49030;BME280;43337;52.070;4.508;2023-03-25T03:39:56;100144.03;;;8.77;100.00
49030;BME280;43337;52.070;4.508;2023-03-25T03:42:30;100151.91;;;8.77;100.00
49030;BME280;43337;52.070;4.508;2023-03-25T03:45:06;100150.13;;;8.78;100.00
49030;BME280;43337;52.070;4.508;2023-03-25T03:47:36;100136.06;;;8.79;100.00
49030;BME280;43337;52.070;4.508;2023-03-25T03:50:08;100143.09;;;8.78;100.00
49030;BME280;43337;52.070;4.508;2023-03-25T03:52:38;100116.63;;;8.64;100.00
49030;BME280;43337;52.070;4.508;2023-03-25T03:55:09;100130.56;;;8.66;100.00
49030;BME280;43337;52.070;4.508;2023-03-25T03:57:47;100145.50;;;8.64;100.00
49030;BME280;43337;52.070;4.508;2023-03-25T04:00:35;100138.91;;;8.55;100.00
49030;BME280;43337;52.070;4.508;2023-03-25T04:03:24;100151.38;;;8.50;100.00
49030;BME280;43337;52.070;4.508;2023-03-25T04:06:04;100144.56;;;8.46;100.00
49030;BME280;43337;52.070;4.508;2023-03-25T04:08:39;100154.34;;;8.43;100.00
49030;BME280;43337;52.070;4.508;2023-03-25T04:11:17;100132.16;;;8.29;100.00
49030;BME280;43337;52.070;4.508;2023-03-25T04:13:45;100143.00;;;8.42;100.00
49030;BME280;43337;52.070;4.508;2023-03-25T04:16:13;100133.59;;;8.38;100.00
49030;BME280;43337;52.070;4.508;2023-03-25T04:18:39;100139.78;;;8.36;100.00
49030;BME280;43337;52.070;4.508;2023-03-25T04:21:05;100133.59;;;8.37;100.00
49030;BME280;43337;52.070;4.508;2023-03-25T04:23:30;100146.00;;;8.33;100.00
49030;BME280;43337;52.070;4.508;2023-03-25T04:25:56;100146.00;;;8.33;100.00
49030;BME280;43337;52.070;4.508;2023-03-25T04:28:22;100159.91;;;8.35;100.00
49030;BME280;43337;52.070;4.508;2023-03-25T04:30:50;100133.81;;;8.32;100.00
49030;BME280;43337;52.070;4.508;2023-03-25T04:33:23;100136.63;;;8.27;100.00
49030;BME280;43337;52.070;4.508;2023-03-25T04:35:49;100142.59;;;8.31;100.00
49030;BME280;43337;52.070;4.508;2023-03-25T04:38:16;100149.25;;;8.40;100.00
49030;BME280;43337;52.070;4.508;2023-03-25T04:40:43;100165.78;;;8.42;100.00
49030;BME280;43337;52.070;4.508;2023-03-25T04:43:14;100170.94;;;8.43;100.00
49030;BME280;43337;52.070;4.508;2023-03-25T04:45:40;100156.91;;;8.44;100.00
49030;BME280;43337;52.070;4.508;2023-03-25T04:48:25;100162.13;;;8.44;100.00
49030;BME280;43337;52.070;4.508;2023-03-25T04:50:54;100142.16;;;8.42;100.00
49030;BME280;43337;52.070;4.508;2023-03-25T04:53:21;100183.22;;;8.43;100.00
49030;BME280;43337;52.070;4.508;2023-03-25T04:55:46;100154.66;;;8.35;100.00
49030;BME280;43337;52.070;4.508;2023-03-25T04:58:13;100166.94;;;8.35;100.00
49030;BME280;43337;52.070;4.508;2023-03-25T05:00:41;100163.50;;;8.32;100.00
49030;BME280;43337;52.070;4.508;2023-03-25T05:03:08;100156.78;;;8.27;100.00
49030;BME280;43337;52.070;4.508;2023-03-25T05:05:34;100170.59;;;8.30;100.00
49030;BME280;43337;52.070;4.508;2023-03-25T05:07:59;100172.94;;;8.38;100.00
49030;BME280;43337;52.070;4.508;2023-03-25T05:10:26;100184.31;;;8.37;100.00
49030;BME280;43337;52.070;4.508;2023-03-25T05:13:02;100179.97;;;8.36;100.00
49030;BME280;43337;52.070;4.508;2023-03-25T05:15:33;100160.13;;;8.30;100.00
49030;BME280;43337;52.070;4.508;2023-03-25T05:18:06;100174.78;;;8.35;100.00
49030;BME280;43337;52.070;4.508;2023-03-25T05:20:35;100172.94;;;8.37;100.00
49030;BME280;43337;52.070;4.508;2023-03-25T05:23:02;100179.13;;;8.36;100.00
49030;BME280;43337;52.070;4.508;2023-03-25T05:25:29;100172.94;;;8.38;100.00
49030;BME280;43337;52.070;4.508;2023-03-25T05:27:59;100163.50;;;8.32;100.00
49030;BME280;43337;52.070;4.508;2023-03-25T05:30:31;100183.41;;;8.38;100.00
49030;BME280;43337;52.070;4.508;2023-03-25T05:32:57;100184.25;;;8.39;100.00
49030;BME280;43337;52.070;4.508;2023-03-25T05:35:25;100187.59;;;8.42;100.00
49030;BME280;43337;52.070;4.508;2023-03-25T05:37:51;100184.81;;;8.45;100.00
49030;BME280;43337;52.070;4.508;2023-03-25T05:40:17;100178.69;;;8.46;100.00
49030;BME280;43337;52.070;4.508;2023-03-25T05:42:42;100182.28;;;8.44;100.00
49030;BME280;43337;52.070;4.508;2023-03-25T05:45:13;100167.78;;;8.35;100.00
49030;BME280;43337;52.070;4.508;2023-03-25T05:47:40;100196.25;;;8.44;100.00
49030;BME280;43337;52.070;4.508;2023-03-25T05:50:05;100187.72;;;8.39;100.00
49030;BME280;43337;52.070;4.508;2023-03-25T05:52:32;100191.44;;;8.33;100.00
49030;BME280;43337;52.070;4.508;2023-03-25T05:54:57;100193.31;;;8.30;100.00
49030;BME280;43337;52.070;4.508;2023-03-25T05:57:23;100190.78;;;8.28;100.00
49030;BME280;43337;52.070;4.508;2023-03-25T05:59:48;100197.72;;;8.29;100.00
49030;BME280;43337;52.070;4.508;2023-03-25T06:02:14;100174.03;;;8.12;100.00
49030;BME280;43337;52.070;4.508;2023-03-25T06:04:40;100206.84;;;8.21;100.00
49030;BME280;43337;52.070;4.508;2023-03-25T06:07:08;100199.38;;;8.12;100.00
49030;BME280;43337;52.070;4.508;2023-03-25T06:09:39;100191.97;;;8.01;100.00
49030;BME280;43337;52.070;4.508;2023-03-25T06:12:14;100204.03;;;8.05;100.00
49030;BME280;43337;52.070;4.508;2023-03-25T06:14:41;100208.22;;;8.09;100.00
49030;BME280;43337;52.070;4.508;2023-03-25T06:17:16;100216.94;;;8.10;100.00
49030;BME280;43337;52.070;4.508;2023-03-25T06:19:47;100210.78;;;8.11;100.00
49030;BME280;43337;52.070;4.508;2023-03-25T06:22:12;100206.13;;;8.17;100.00
49030;BME280;43337;52.070;4.508;2023-03-25T06:24:46;100206.94;;;8.19;100.00
49030;BME280;43337;52.070;4.508;2023-03-25T06:27:15;100201.00;;;8.14;100.00
49030;BME280;43337;52.070;4.508;2023-03-25T06:29:42;100212.81;;;8.24;100.00
49030;BME280;43337;52.070;4.508;2023-03-25T06:32:10;100218.16;;;8.23;100.00
49030;BME280;43337;52.070;4.508;2023-03-25T06:34:36;100226.72;;;8.26;100.00
49030;BME280;43337;52.070;4.508;2023-03-25T06:37:03;100230.94;;;8.30;100.00
49030;BME280;43337;52.070;4.508;2023-03-25T06:39:28;100220.47;;;8.29;100.00
49030;BME280;43337;52.070;4.508;2023-03-25T06:41:58;100219.31;;;8.36;100.00
49030;BME280;43337;52.070;4.508;2023-03-25T06:44:24;100206.19;;;8.36;100.00
49030;BME280;43337;52.070;4.508;2023-03-25T06:46:49;100221.63;;;8.44;100.00
49030;BME280;43337;52.070;4.508;2023-03-25T06:49:15;100239.78;;;8.48;100.00
49030;BME280;43337;52.070;4.508;2023-03-25T06:51:40;100223.84;;;8.53;100.00
49030;BME280;43337;52.070;4.508;2023-03-25T06:54:06;100212.50;;;8.52;100.00
49030;BME280;43337;52.070;4.508;2023-03-25T06:56:32;100230.72;;;8.55;100.00
49030;BME280;43337;52.070;4.508;2023-03-25T06:58:57;100231.44;;;8.59;100.00
49030;BME280;43337;52.070;4.508;2023-03-25T07:01:23;100217.81;;;8.51;100.00
49030;BME280;43337;52.070;4.508;2023-03-25T07:03:48;100211.38;;;8.58;100.00
49030;BME280;43337;52.070;4.508;2023-03-25T07:06:19;100232.88;;;8.66;100.00
49030;BME280;43337;52.070;4.508;2023-03-25T07:08:45;100203.91;;;8.49;100.00
49030;BME280;43337;52.070;4.508;2023-03-25T07:11:12;100224.50;;;8.58;100.00
49030;BME280;43337;52.070;4.508;2023-03-25T07:13:38;100226.59;;;8.70;100.00
49030;BME280;43337;52.070;4.508;2023-03-25T07:16:04;100256.88;;;8.77;100.00
49030;BME280;43337;52.070;4.508;2023-03-25T07:18:30;100243.81;;;8.76;100.00
49030;BME280;43337;52.070;4.508;2023-03-25T07:20:56;100255.88;;;8.80;100.00
49030;BME280;43337;52.070;4.508;2023-03-25T07:23:21;100218.91;;;8.66;100.00
49030;BME280;43337;52.070;4.508;2023-03-25T07:25:47;100251.69;;;8.76;100.00
49030;BME280;43337;52.070;4.508;2023-03-25T07:28:12;100250.50;;;8.83;100.00
49030;BME280;43337;52.070;4.508;2023-03-25T07:30:38;100266.00;;;8.89;100.00
49030;BME280;43337;52.070;4.508;2023-03-25T07:33:04;100202.25;;;8.67;100.00
49030;BME280;43337;52.070;4.508;2023-03-25T07:35:29;100227.22;;;8.75;100.00
49030;BME280;43337;52.070;4.508;2023-03-25T07:37:55;100256.91;;;8.96;100.00
49030;BME280;43337;52.070;4.508;2023-03-25T07:40:20;100237.16;;;8.88;100.00
49030;BME280;43337;52.070;4.508;2023-03-25T07:42:45;100230.72;;;8.95;100.00
49030;BME280;43337;52.070;4.508;2023-03-25T07:45:11;100244.34;;;9.03;100.00
49030;BME280;43337;52.070;4.508;2023-03-25T07:47:37;100218.16;;;9.01;100.00
49030;BME280;43337;52.070;4.508;2023-03-25T07:50:03;100220.16;;;8.96;100.00
49030;BME280;43337;52.070;4.508;2023-03-25T07:52:28;100235.22;;;9.12;100.00
49030;BME280;43337;52.070;4.508;2023-03-25T07:54:54;100227.97;;;8.98;100.00
49030;BME280;43337;52.070;4.508;2023-03-25T07:57:20;100246.00;;;9.05;100.00
49030;BME280;43337;52.070;4.508;2023-03-25T07:59:45;100233.16;;;8.99;100.00
49030;BME280;43337;52.070;4.508;2023-03-25T08:02:12;100246.25;;;9.18;100.00
49030;BME280;43337;52.070;4.508;2023-03-25T08:04:38;100255.91;;;9.18;100.00
49030;BME280;43337;52.070;4.508;2023-03-25T08:07:04;100252.22;;;9.22;100.00
49030;BME280;43337;52.070;4.508;2023-03-25T08:09:30;100254.00;;;9.21;100.00
49030;BME280;43337;52.070;4.508;2023-03-25T08:11:56;100261.75;;;9.24;100.00
49030;BME280;43337;52.070;4.508;2023-03-25T08:14:21;100266.03;;;9.27;100.00
49030;BME280;43337;52.070;4.508;2023-03-25T08:16:47;100262.59;;;9.25;100.00
49030;BME280;43337;52.070;4.508;2023-03-25T08:19:12;100267.28;;;9.37;100.00
49030;BME280;43337;52.070;4.508;2023-03-25T08:21:37;100273.09;;;9.44;100.00
49030;BME280;43337;52.070;4.508;2023-03-25T08:24:03;100292.91;;;9.51;100.00
49030;BME280;43337;52.070;4.508;2023-03-25T08:26:32;100281.25;;;9.57;100.00
49030;BME280;43337;52.070;4.508;2023-03-25T08:28:58;100273.19;;;9.61;100.00
49030;BME280;43337;52.070;4.508;2023-03-25T08:31:27;100236.09;;;9.48;100.00
49030;BME280;43337;52.070;4.508;2023-03-25T08:34:02;100280.84;;;9.66;100.00
49030;BME280;43337;52.070;4.508;2023-03-25T08:36:28;100260.59;;;9.49;100.00
49030;BME280;43337;52.070;4.508;2023-03-25T08:38:54;100276.34;;;9.68;100.00
49030;BME280;43337;52.070;4.508;2023-03-25T08:41:20;100287.50;;;9.73;100.00
49030;BME280;43337;52.070;4.508;2023-03-25T08:43:45;100271.44;;;9.79;100.00
49030;BME280;43337;52.070;4.508;2023-03-25T08:46:11;100279.97;;;9.84;100.00
49030;BME280;43337;52.070;4.508;2023-03-25T08:48:36;100271.00;;;9.88;100.00
49030;BME280;43337;52.070;4.508;2023-03-25T08:51:03;100282.00;;;9.96;100.00
49030;BME280;43337;52.070;4.508;2023-03-25T08:53:29;100292.19;;;10.02;100.00
49030;BME280;43337;52.070;4.508;2023-03-25T08:55:56;100278.06;;;10.05;100.00
49030;BME280;43337;52.070;4.508;2023-03-25T08:58:22;100293.59;;;10.10;100.00
49030;BME280;43337;52.070;4.508;2023-03-25T09:00:52;100289.28;;;10.09;100.00
49030;BME280;43337;52.070;4.508;2023-03-25T09:03:23;100288.19;;;10.13;100.00
49030;BME280;43337;52.070;4.508;2023-03-25T09:05:50;100303.75;;;10.17;100.00
49030;BME280;43337;52.070;4.508;2023-03-25T09:08:15;100294.06;;;10.18;100.00
49030;BME280;43337;52.070;4.508;2023-03-25T09:10:41;100300.34;;;10.15;100.00
49030;BME280;43337;52.070;4.508;2023-03-25T09:13:06;100296.09;;;10.13;100.00
49030;BME280;43337;52.070;4.508;2023-03-25T09:15:32;100309.25;;;10.13;100.00
49030;BME280;43337;52.070;4.508;2023-03-25T09:17:57;100316.03;;;10.17;100.00
49030;BME280;43337;52.070;4.508;2023-03-25T09:20:23;100294.63;;;10.07;100.00
49030;BME280;43337;52.070;4.508;2023-03-25T09:22:49;100297.25;;;10.07;100.00
49030;BME280;43337;52.070;4.508;2023-03-25T09:25:14;100323.84;;;10.18;100.00
49030;BME280;43337;52.070;4.508;2023-03-25T09:27:40;100299.41;;;10.16;100.00
49030;BME280;43337;52.070;4.508;2023-03-25T09:30:06;100304.53;;;10.19;100.00
49030;BME280;43337;52.070;4.508;2023-03-25T09:32:32;100315.66;;;10.24;100.00
49030;BME280;43337;52.070;4.508;2023-03-25T09:34:57;100301.75;;;10.22;100.00
49030;BME280;43337;52.070;4.508;2023-03-25T09:37:23;100321.44;;;10.33;100.00
49030;BME280;43337;52.070;4.508;2023-03-25T09:39:48;100300.16;;;10.37;100.00
49030;BME280;43337;52.070;4.508;2023-03-25T09:45:10;100313.00;;;10.43;100.00
49030;BME280;43337;52.070;4.508;2023-03-25T09:47:38;100321.38;;;10.51;100.00
49030;BME280;43337;52.070;4.508;2023-03-25T09:50:11;100321.69;;;10.45;100.00
49030;BME280;43337;52.070;4.508;2023-03-25T09:52:50;100319.66;;;10.50;100.00
49030;BME280;43337;52.070;4.508;2023-03-25T09:55:22;100326.84;;;10.64;100.00
49030;BME280;43337;52.070;4.508;2023-03-25T09:58:38;100335.25;;;10.72;100.00
49030;BME280;43337;52.070;4.508;2023-03-25T10:00:38;100332.50;;;10.74;100.00
49030;BME280;43337;52.070;4.508;2023-03-25T10:03:20;100340.25;;;10.77;100.00
49030;BME280;43337;52.070;4.508;2023-03-25T10:11:17;100344.34;;;10.83;100.00
49030;BME280;43337;52.070;4.508;2023-03-25T10:14:03;100345.13;;;10.85;100.00
49030;BME280;43337;52.070;4.508;2023-03-25T10:25:03;100350.47;;;10.83;100.00
49030;BME280;43337;52.070;4.508;2023-03-25T10:27:36;100338.22;;;10.82;100.00
49030;BME280;43337;52.070;4.508;2023-03-25T10:30:15;100378.03;;;10.93;100.00
49030;BME280;43337;52.070;4.508;2023-03-25T10:32:45;100374.47;;;10.94;100.00
49030;BME280;43337;52.070;4.508;2023-03-25T10:35:19;100363.03;;;10.95;100.00
49030;BME280;43337;52.070;4.508;2023-03-25T10:37:49;100369.28;;;10.93;100.00
49030;BME280;43337;52.070;4.508;2023-03-25T10:45:31;100373.31;;;11.00;100.00
49030;BME280;43337;52.070;4.508;2023-03-25T10:48:06;100375.31;;;10.95;100.00
49030;BME280;43337;52.070;4.508;2023-03-25T10:50:35;100353.03;;;10.85;100.00
49030;BME280;43337;52.070;4.508;2023-03-25T10:53:01;100382.53;;;10.91;100.00
49030;BME280;43337;52.070;4.508;2023-03-25T10:55:31;100377.50;;;10.87;100.00
49030;BME280;43337;52.070;4.508;2023-03-25T10:57:59;100391.91;;;10.97;100.00
49030;BME280;43337;52.070;4.508;2023-03-25T11:00:26;100362.53;;;10.87;100.00
49030;BME280;43337;52.070;4.508;2023-03-25T11:02:54;100391.41;;;11.06;100.00
49030;BME280;43337;52.070;4.508;2023-03-25T11:05:23;100387.63;;;11.12;100.00
49030;BME280;43337;52.070;4.508;2023-03-25T11:07:55;100377.53;;;11.20;100.00
49030;BME280;43337;52.070;4.508;2023-03-25T11:10:23;100384.03;;;11.30;100.00
49030;BME280;43337;52.070;4.508;2023-03-25T11:12:50;100361.63;;;11.21;100.00
49030;BME280;43337;52.070;4.508;2023-03-25T11:15:30;100390.66;;;11.37;100.00
49030;BME280;43337;52.070;4.508;2023-03-25T11:18:03;100401.16;;;11.39;100.00
49030;BME280;43337;52.070;4.508;2023-03-25T11:20:36;100407.16;;;11.41;100.00
49030;BME280;43337;52.070;4.508;2023-03-25T11:23:14;100389.34;;;11.46;100.00
49030;BME280;43337;52.070;4.508;2023-03-25T11:25:42;100387.00;;;11.57;100.00
49030;BME280;43337;52.070;4.508;2023-03-25T11:28:11;100392.75;;;11.64;100.00
49030;BME280;43337;52.070;4.508;2023-03-25T11:31:15;100403.25;;;11.65;100.00
49030;BME280;43337;52.070;4.508;2023-03-25T11:33:43;100410.75;;;11.73;100.00
49030;BME280;43337;52.070;4.508;2023-03-25T11:36:30;100410.13;;;11.68;100.00
49030;BME280;43337;52.070;4.508;2023-03-25T11:39:02;100394.06;;;11.72;100.00
49030;BME280;43337;52.070;4.508;2023-03-25T11:41:35;100400.94;;;11.75;100.00
49030;BME280;43337;52.070;4.508;2023-03-25T11:44:03;100393.34;;;11.86;100.00
49030;BME280;43337;52.070;4.508;2023-03-25T11:46:30;100403.72;;;11.89;100.00
49030;BME280;43337;52.070;4.508;2023-03-25T11:49:07;100409.53;;;11.79;100.00
49030;BME280;43337;52.070;4.508;2023-03-25T11:51:33;100413.03;;;11.79;100.00
49030;BME280;43337;52.070;4.508;2023-03-25T11:54:02;100399.66;;;11.66;100.00
49030;BME280;43337;52.070;4.508;2023-03-25T11:56:36;100396.09;;;11.67;100.00
49030;BME280;43337;52.070;4.508;2023-03-25T11:59:07;100398.13;;;11.62;100.00
49030;BME280;43337;52.070;4.508;2023-03-25T12:06:31;100406.03;;;11.95;100.00
49030;BME280;43337;52.070;4.508;2023-03-25T12:09:06;100409.94;;;12.04;100.00
49030;BME280;43337;52.070;4.508;2023-03-25T12:11:40;100391.91;;;12.12;100.00
49030;BME280;43337;52.070;4.508;2023-03-25T12:17:00;100408.69;;;12.11;100.00
49030;BME280;43337;52.070;4.508;2023-03-25T12:19:47;100396.50;;;12.09;100.00
49030;BME280;43337;52.070;4.508;2023-03-25T12:22:19;100409.78;;;12.23;100.00
49030;BME280;43337;52.070;4.508;2023-03-25T12:25:06;100407.72;;;12.28;100.00
49030;BME280;43337;52.070;4.508;2023-03-25T12:27:42;100409.19;;;12.34;100.00
49030;BME280;43337;52.070;4.508;2023-03-25T12:33:01;100417.94;;;12.34;100.00
49030;BME280;43337;52.070;4.508;2023-03-25T12:43:35;100428.53;;;11.69;100.00
49030;BME280;43337;52.070;4.508;2023-03-25T12:52:03;100431.84;;;11.73;100.00
49030;BME280;43337;52.070;4.508;2023-03-25T13:00:23;100424.84;;;12.05;100.00
49030;BME280;43337;52.070;4.508;2023-03-25T13:03:26;100434.28;;;12.09;100.00
49030;BME280;43337;52.070;4.508;2023-03-25T13:06:35;100449.09;;;12.28;100.00
49030;BME280;43337;52.070;4.508;2023-03-25T13:09:08;100431.47;;;12.44;100.00
49030;BME280;43337;52.070;4.508;2023-03-25T13:11:40;100455.22;;;12.44;100.00
49030;BME280;43337;52.070;4.508;2023-03-25T13:14:24;100444.78;;;12.27;100.00
49030;BME280;43337;52.070;4.508;2023-03-25T13:16:54;100443.72;;;12.13;100.00
49030;BME280;43337;52.070;4.508;2023-03-25T13:19:23;100466.03;;;11.92;100.00
49030;BME280;43337;52.070;4.508;2023-03-25T13:21:54;100461.25;;;11.65;100.00
49030;BME280;43337;52.070;4.508;2023-03-25T13:24:37;100466.09;;;11.40;100.00
49030;BME280;43337;52.070;4.508;2023-03-25T13:27:05;100470.91;;;11.14;100.00
49030;BME280;43337;52.070;4.508;2023-03-25T13:29:41;100529.34;;;10.88;100.00
49030;BME280;43337;52.070;4.508;2023-03-25T13:32:14;100489.91;;;10.50;100.00
49030;BME280;43337;52.070;4.508;2023-03-25T13:34:50;100472.81;;;10.21;100.00
49030;BME280;43337;52.070;4.508;2023-03-25T13:37:28;100470.28;;;10.00;100.00
49030;BME280;43337;52.070;4.508;2023-03-25T13:43:10;100462.16;;;9.86;100.00
49030;BME280;43337;52.070;4.508;2023-03-25T13:45:54;100462.38;;;10.00;100.00
49030;BME280;43337;52.070;4.508;2023-03-25T13:48:26;100467.66;;;10.19;100.00
49030;BME280;43337;52.070;4.508;2023-03-25T13:51:01;100456.66;;;10.30;100.00
49030;BME280;43337;52.070;4.508;2023-03-25T13:53:51;100444.31;;;10.49;100.00
49030;BME280;43337;52.070;4.508;2023-03-25T14:12:33;100467.75;;;11.42;100.00
49030;BME280;43337;52.070;4.508;2023-03-25T14:15:09;100468.22;;;11.66;100.00
49030;BME280;43337;52.070;4.508;2023-03-25T14:17:39;100477.38;;;11.77;100.00
49030;BME280;43337;52.070;4.508;2023-03-25T14:20:06;100474.63;;;11.78;100.00
49030;BME280;43337;52.070;4.508;2023-03-25T14:22:43;100499.44;;;11.91;100.00
49030;BME280;43337;52.070;4.508;2023-03-25T14:25:21;100482.03;;;11.89;100.00
49030;BME280;43337;52.070;4.508;2023-03-25T14:27:52;100485.03;;;11.81;100.00
49030;BME280;43337;52.070;4.508;2023-03-25T14:30:24;100480.84;;;11.77;100.00
49030;BME280;43337;52.070;4.508;2023-03-25T14:32:53;100483.03;;;11.86;100.00
49030;BME280;43337;52.070;4.508;2023-03-25T14:48:42;100505.91;;;11.86;100.00
49030;BME280;43337;52.070;4.508;2023-03-25T14:51:42;100515.19;;;11.76;100.00
49030;BME280;43337;52.070;4.508;2023-03-25T14:54:19;100515.84;;;11.81;100.00